Lamar, Mississippi
Current Conditions -  °F | °C
As of 10:15 PM on Wednesday 22 Oct 2014 (Local Time) from KOLV Reporting Station
Clear Clear  
Wind Chill: 50°   Ceiling: Unl
Heat Index: 50°   Visibility: 10mi
Dew Point: 48°   Wind: 3mph
Humidity: 94%   Direction: 60°ENE
Pressure: 30.19"   Gusts: NA
Location:  34.92°N, 89.32°W
Report Text: KOLV 230315Z AUTO 06003KT 10SM CLR 10/09 A3019 RMK A01 P000
Loading
Personal Weather Stations






























Interactive Weather Map
Tropical Storm Tracking
New forecast layout! Learn more

10-Day Weather Forecast

Advertisements
Track Severe Weather on mobile